Route Details

Aircraft Information
Group: North America Fleet
Types: B738, B752, B762, B763
Route Data
Distance: 719nm
Duration: 2h 14m
Origin METAR: KDEN 171053Z 24008KT 10SM FEW055 FEW150 SCT220 16/11 A3027 RMK AO2 SLP186 T01560111
Dest. METAR: KRFD 171054Z 00000KT 10SM FEW250 13/11 A3015 RMK AO2 SLP207 T01330111
Freight Data
(for Aug 18, 2022)
Load Factor:
48%
Manifested Cargo: 57,821lbs
Financial History
Total Freight: 129,460lbs
Average Load: 0lbs/flt
Fuel Used: 56,678lbs
Avg. Fuel Used: 0lbs/flt
Fuel Expense: $33,279
Avg. Fuel Expense: $0
Avg. Fuel Cost: $0/lbs
Total Gross Income: $253,217
Pilot Pay: $876
Total Expenses: $38,535
Total Revenue: $179,585
Average Revenue: $0

Capitol Logistics 444




KDEN
Denver International Airport
Denver, Colorado
KRFD
Chicago/Rockford International Airport
Rockford, Illinois

Activity Log

Date Flight Route Aircraft Duration
06/30/2022 CPX293 HHOTH2 JOBBA DCT BFF DCT FOD J94 DBQ DCT B763 2h 14m
06/30/2022 CPX293 HHOTH2 JOBBA DCT BFF DCT FOD J94 DBQ DCT B763 2h 14m
05/18/2022 CPX293 EEONS8 WYNDM OBH J100 DBQ B752 1h 54m
11/27/2021 CPX293 EEONS8 WYNDM HCT LNK J146 IOW RFD B752 1h 37m